createdAt,value
2019-05-15T00:02:02.909Z,100833.66
2019-05-15T00:04:43.343Z,100834.12
2019-05-15T00:07:25.613Z,100830.05
2019-05-15T00:10:04.716Z,100831.31
2019-05-15T00:12:42.244Z,100831.49
2019-05-15T00:15:19.562Z,100837.55
2019-05-15T00:17:58.078Z,100835.80
2019-05-15T00:20:39.621Z,100838.13
2019-05-15T00:23:18.392Z,100838.77
2019-05-15T00:25:58.379Z,100846.02
2019-05-15T00:28:36.001Z,100842.69
2019-05-15T00:31:13.627Z,100850.43
2019-05-15T00:33:50.756Z,100860.34
2019-05-15T00:36:30.009Z,100858.26
2019-05-15T00:39:08.649Z,100861.88
2019-05-15T00:41:54.100Z,100864.95
2019-05-15T00:44:28.018Z,100881.44
2019-05-15T00:47:05.262Z,100886.98
2019-05-15T00:49:42.774Z,100889.09
2019-05-15T00:52:20.314Z,100892.62
2019-05-15T00:54:58.934Z,100896.55
2019-05-15T00:57:39.366Z,100897.38
2019-05-15T01:00:18.640Z,100894.90
2019-05-15T01:02:57.860Z,100891.34
2019-05-15T01:05:34.903Z,100891.77
2019-05-15T01:08:12.496Z,100890.80
2019-05-15T01:10:50.467Z,100883.36
2019-05-15T01:13:29.057Z,100890.94
2019-05-15T01:16:08.901Z,100897.48
2019-05-15T01:18:46.019Z,100901.19
2019-05-15T01:21:23.473Z,100908.37
2019-05-15T01:24:01.471Z,100910.89
2019-05-15T01:26:38.960Z,100920.17
2019-05-15T01:29:18.228Z,100928.50
2019-05-15T01:31:55.339Z,100930.51
2019-05-15T01:34:34.046Z,100942.36
2019-05-15T01:37:11.217Z,100949.72
2019-05-15T01:39:48.882Z,100944.20
2019-05-15T01:42:27.991Z,100956.13
2019-05-15T01:45:08.711Z,100956.22
2019-05-15T01:47:45.180Z,100957.11
2019-05-15T01:50:22.473Z,100958.92
2019-05-15T01:52:59.732Z,100959.33
2019-05-15T01:55:39.386Z,100957.59
2019-05-15T01:58:18.601Z,100960.25
2019-05-15T02:00:58.976Z,100961.23
2019-05-15T02:03:38.322Z,100960.45
2019-05-15T02:06:19.027Z,100959.66
2019-05-15T02:08:58.874Z,100967.27
2019-05-15T02:11:38.678Z,100961.20
2019-05-15T02:14:18.802Z,100960.26
2019-05-15T02:17:00.155Z,100963.13
2019-05-15T02:19:39.170Z,100957.56
2019-05-15T02:22:18.778Z,100958.33
2019-05-15T02:24:55.914Z,100963.39
2019-05-15T02:27:34.034Z,100963.64
2019-05-15T02:30:22.646Z,100973.42
2019-05-15T02:32:50.780Z,100967.02
2019-05-15T02:35:29.616Z,100969.41
2019-05-15T02:38:10.091Z,100968.73
2019-05-15T02:40:49.392Z,100964.48
2019-05-15T02:43:29.871Z,100962.36
2019-05-15T02:46:10.027Z,100967.34
2019-05-15T02:48:48.957Z,100964.25
2019-05-15T02:51:25.643Z,100960.88
2019-05-15T02:54:03.199Z,100960.08
2019-05-15T02:56:40.420Z,100961.16
2019-05-15T02:59:19.407Z,100959.24
2019-05-15T03:01:59.430Z,100962.87
2019-05-15T03:04:39.776Z,100961.47
2019-05-15T03:07:18.986Z,100954.22
2019-05-15T03:09:54.562Z,100951.02
2019-05-15T03:12:32.017Z,100948.87
2019-05-15T03:15:10.359Z,100949.13
2019-05-15T03:17:49.487Z,100945.89
2019-05-15T03:20:29.876Z,100947.30
2019-05-15T03:23:09.625Z,100943.90
2019-05-15T03:25:48.896Z,100937.07
2019-05-15T03:28:25.481Z,100928.45
2019-05-15T03:31:22.540Z,100929.63
2019-05-15T03:33:46.671Z,100927.28
2019-05-15T03:36:24.113Z,100935.36
2019-05-15T03:39:01.885Z,100938.83
2019-05-15T03:41:40.150Z,100940.94
2019-05-15T03:44:19.789Z,100936.75
2019-05-15T03:46:59.600Z,100932.58
2019-05-15T03:49:39.724Z,100932.28
2019-05-15T03:52:19.042Z,100938.61
2019-05-15T03:54:58.842Z,100925.78
2019-05-15T03:57:39.783Z,100922.02
2019-05-15T04:00:19.302Z,100920.79
2019-05-15T04:02:59.016Z,100905.81
2019-05-15T04:05:38.946Z,100899.67
2019-05-15T04:08:19.176Z,100894.19
2019-05-15T04:10:55.162Z,100904.53
2019-05-15T04:13:34.970Z,100896.91
2019-05-15T04:16:12.670Z,100890.00
2019-05-15T04:18:50.624Z,100886.53
2019-05-15T04:21:30.361Z,100879.45
2019-05-15T04:24:09.629Z,100883.40
2019-05-15T04:26:48.888Z,100880.63
2019-05-15T04:29:28.930Z,100883.75
2019-05-15T04:32:06.326Z,100880.80
2019-05-15T04:34:44.793Z,100874.64
2019-05-15T04:37:22.366Z,100874.19
2019-05-15T04:40:00.314Z,100866.84
2019-05-15T04:42:39.720Z,100868.38
2019-05-15T04:45:19.449Z,100869.22
2019-05-15T04:47:58.864Z,100863.48
2019-05-15T04:50:40.065Z,100859.53
2019-05-15T04:53:19.212Z,100859.98
2019-05-15T04:55:59.453Z,100854.23
2019-05-15T04:58:39.538Z,100856.27
2019-05-15T05:01:20.037Z,100851.84
2019-05-15T05:03:58.895Z,100842.25
2019-05-15T05:06:38.675Z,100835.33
2019-05-15T05:09:15.824Z,100841.84
2019-05-15T05:11:53.092Z,100841.63
2019-05-15T05:14:30.421Z,100828.83
2019-05-15T05:17:09.059Z,100824.52
2019-05-15T05:19:47.898Z,100821.68
2019-05-15T05:22:28.219Z,100805.17
2019-05-15T05:25:08.057Z,100804.94
2019-05-15T05:27:49.968Z,100796.42
2019-05-15T05:30:29.308Z,100797.02
2019-05-15T05:33:08.495Z,100792.44
2019-05-15T05:35:48.165Z,100778.71
2019-05-15T05:38:25.158Z,100780.25
2019-05-15T05:41:02.817Z,100777.42
2019-05-15T05:43:40.446Z,100772.91
2019-05-15T05:46:18.431Z,100774.88
2019-05-15T05:48:58.296Z,100771.21
2019-05-15T05:51:35.793Z,100775.34
2019-05-15T05:54:13.805Z,100780.36
2019-05-15T05:56:51.074Z,100767.77
2019-05-15T05:59:28.801Z,100772.55
2019-05-15T06:02:08.270Z,100760.54
2019-05-15T06:04:47.935Z,100756.80
2019-05-15T06:07:27.910Z,100755.87
2019-05-15T06:10:04.844Z,100755.68
2019-05-15T06:12:42.197Z,100748.95
2019-05-15T06:15:19.280Z,100744.41
2019-05-15T06:17:58.450Z,100735.72
2019-05-15T06:20:36.272Z,100729.00
2019-05-15T06:23:13.468Z,100724.25
2019-05-15T06:25:51.679Z,100734.88
2019-05-15T06:28:29.776Z,100725.34
2019-05-15T06:31:08.964Z,100725.55
2019-05-15T06:33:46.319Z,100723.80
2019-05-15T06:36:23.515Z,100711.33
2019-05-15T06:39:00.992Z,100700.94
2019-05-15T06:41:40.410Z,100689.80
2019-05-15T06:44:18.746Z,100689.81
2019-05-15T06:46:58.582Z,100678.55
2019-05-15T06:49:34.781Z,100661.06
2019-05-15T06:52:12.514Z,100670.73
2019-05-15T06:54:50.074Z,100666.08
2019-05-15T06:57:28.738Z,100666.80
2019-05-15T07:00:08.083Z,100658.31
2019-05-15T07:02:48.766Z,100653.01
2019-05-15T07:05:29.321Z,100648.81
2019-05-15T07:08:05.583Z,100642.16
2019-05-15T07:10:43.032Z,100632.33
2019-05-15T07:13:21.257Z,100627.94
2019-05-15T07:15:58.729Z,100606.84
2019-05-15T07:18:38.797Z,100609.88
2019-05-15T07:21:18.240Z,100601.11
2019-05-15T07:23:58.134Z,100596.59
2019-05-15T07:26:39.179Z,100587.94
2019-05-15T07:29:15.613Z,100582.50
2019-05-15T07:31:53.524Z,100573.20
2019-05-15T07:34:31.877Z,100569.88
2019-05-15T07:37:09.795Z,100567.59
2019-05-15T07:39:48.837Z,100563.77
2019-05-15T07:42:28.906Z,100551.48
2019-05-15T07:45:08.132Z,100550.90
2019-05-15T07:47:44.829Z,100543.21
2019-05-15T07:50:22.197Z,100535.47
2019-05-15T07:52:59.459Z,100527.42
2019-05-15T07:55:39.374Z,100530.67
2019-05-15T07:58:20.244Z,100521.94
2019-05-15T08:00:58.781Z,100512.73
2019-05-15T08:03:35.090Z,100522.09
2019-05-15T08:06:13.733Z,100518.22
2019-05-15T08:08:51.279Z,100519.28
2019-05-15T08:11:28.778Z,100524.34
2019-05-15T08:14:06.014Z,100521.87
2019-05-15T08:16:45.070Z,100522.13
2019-05-15T08:19:22.666Z,100520.85
2019-05-15T08:22:00.373Z,100512.05
2019-05-15T08:24:39.127Z,100511.64
2019-05-15T08:27:19.094Z,100520.45
2019-05-15T08:29:58.137Z,100527.03
2019-05-15T08:32:38.894Z,100520.36
2019-05-15T08:35:18.939Z,100524.39
2019-05-15T08:37:57.994Z,100518.43
2019-05-15T08:40:35.313Z,100514.98
2019-05-15T08:43:13.088Z,100512.91
2019-05-15T08:45:50.513Z,100514.73
2019-05-15T08:48:28.053Z,100507.80
2019-05-15T08:51:08.705Z,100509.25
2019-05-15T08:53:48.324Z,100511.81
2019-05-15T08:56:25.312Z,100512.19
2019-05-15T08:59:02.651Z,100505.52
2019-05-15T09:01:40.377Z,100501.19
2019-05-15T09:04:30.221Z,100503.64
2019-05-15T09:07:01.164Z,100500.52
2019-05-15T09:09:38.398Z,100497.09
2019-05-15T09:12:20.729Z,100488.83
2019-05-15T09:14:58.294Z,100483.09
2019-05-15T09:17:36.105Z,100479.51
2019-05-15T09:20:14.077Z,100479.09
2019-05-15T09:22:52.715Z,100474.27
2019-05-15T09:25:30.012Z,100474.77
2019-05-15T09:28:08.639Z,100476.89
2019-05-15T09:30:48.262Z,100466.85
2019-05-15T09:33:28.598Z,100467.22
2019-05-15T09:36:06.305Z,100467.77
2019-05-15T09:38:44.388Z,100460.02
2019-05-15T09:41:22.177Z,100462.83
2019-05-15T09:44:00.966Z,100459.19
2019-05-15T09:46:38.926Z,100466.06
2019-05-15T09:49:18.215Z,100464.76
2019-05-15T09:51:58.429Z,100459.22
2019-05-15T09:54:38.478Z,100466.06
2019-05-15T09:57:14.723Z,100457.72
2019-05-15T09:59:52.035Z,100457.83
2019-05-15T10:02:29.385Z,100458.86
2019-05-15T10:05:10.879Z,100456.21
2019-05-15T10:07:47.157Z,100473.02
2019-05-15T10:10:28.457Z,100472.67
2019-05-15T10:13:05.917Z,100474.87
2019-05-15T10:15:47.441Z,100479.13
2019-05-15T10:18:22.860Z,100478.84
2019-05-15T10:21:01.265Z,100481.03
2019-05-15T10:23:40.340Z,100493.13
2019-05-15T10:26:19.278Z,100487.82
2019-05-15T10:28:58.421Z,100496.59
2019-05-15T10:31:38.771Z,100500.28
2019-05-15T10:34:18.108Z,100506.88
2019-05-15T10:36:55.195Z,100493.69
2019-05-15T10:39:33.045Z,100507.30
2019-05-15T10:42:10.515Z,100508.65
2019-05-15T10:44:48.835Z,100503.19
2019-05-15T10:47:28.952Z,100529.83
2019-05-15T10:50:07.829Z,100535.66
2019-05-15T10:52:44.951Z,100531.16
2019-05-15T10:55:22.593Z,100542.88
2019-05-15T10:58:00.599Z,100551.78
2019-05-15T11:00:37.914Z,100557.76
2019-05-15T11:03:15.204Z,100563.13
2019-05-15T11:05:52.223Z,100569.03
2019-05-15T11:08:30.064Z,100564.22
2019-05-15T11:11:09.111Z,100566.14
2019-05-15T11:13:46.841Z,100579.80
2019-05-15T11:16:24.369Z,100589.55
2019-05-15T11:19:02.326Z,100603.56
2019-05-15T11:21:43.519Z,100614.17
2019-05-15T11:24:20.265Z,100618.97
2019-05-15T11:26:59.458Z,100622.40
2019-05-15T11:29:38.195Z,100623.47
2019-05-15T11:32:16.201Z,100627.94
2019-05-15T11:34:53.592Z,100635.40
2019-05-15T11:37:31.202Z,100638.48
2019-05-15T11:40:10.323Z,100643.94
2019-05-15T11:42:49.017Z,100642.97
2019-05-15T11:45:28.917Z,100636.20
2019-05-15T11:48:05.151Z,100654.68
2019-05-15T11:50:43.410Z,100659.13
2019-05-15T11:53:20.765Z,100658.02
2019-05-15T11:55:59.836Z,100662.20
2019-05-15T11:58:38.994Z,100660.00
2019-05-15T12:01:19.268Z,100652.92
2019-05-15T12:03:58.366Z,100660.83
2019-05-15T12:06:35.076Z,100655.73
2019-05-15T12:09:12.633Z,100654.28
2019-05-15T12:11:50.857Z,100655.46
2019-05-15T12:14:29.822Z,100659.00
2019-05-15T12:17:12.460Z,100662.92
2019-05-15T12:19:54.913Z,100661.20
2019-05-15T12:22:24.488Z,100658.83
2019-05-15T12:25:01.774Z,100665.42
2019-05-15T12:27:40.706Z,100666.72
2019-05-15T12:30:19.884Z,100672.98
2019-05-15T12:33:00.213Z,100676.79
2019-05-15T12:35:39.673Z,100675.88
2019-05-15T12:38:18.606Z,100679.68
2019-05-15T13:02:11.296Z,100699.55
2019-05-15T13:04:49.096Z,100704.80
2019-05-15T13:07:28.418Z,100705.64
2019-05-15T13:10:08.472Z,100714.33
2019-05-15T13:12:59.120Z,100717.12
2019-05-15T13:15:28.170Z,100709.66
2019-05-15T13:18:12.855Z,100725.05
2019-05-15T13:20:45.875Z,100727.03
2019-05-15T13:23:23.356Z,100733.28
2019-05-15T13:26:01.426Z,100740.47
2019-05-15T13:28:39.107Z,100745.50
2019-05-15T13:31:18.953Z,100747.19
2019-05-15T13:33:58.572Z,100760.72
2019-05-15T13:36:35.657Z,100766.36
2019-05-15T13:39:13.964Z,100780.78
2019-05-15T13:41:51.161Z,100799.73
2019-05-15T13:44:40.813Z,100810.71
2019-05-15T13:47:22.263Z,100820.28
2019-05-15T13:50:00.032Z,100828.64
2019-05-15T13:52:39.258Z,100835.13
2019-05-15T13:55:24.850Z,100831.58
2019-05-15T13:57:57.980Z,100842.14
2019-05-15T14:00:34.785Z,100846.53
2019-05-15T14:03:12.408Z,100851.28
2019-05-15T14:05:50.042Z,100857.34
2019-05-15T14:08:28.936Z,100856.94
2019-05-15T14:11:06.244Z,100863.66
2019-05-15T14:13:43.890Z,100867.31
2019-05-15T14:16:21.269Z,100868.66
2019-05-15T14:18:59.411Z,100867.90
2019-05-15T14:21:37.919Z,100870.53
2019-05-15T14:24:17.842Z,100872.78
2019-05-15T14:26:54.888Z,100865.84
2019-05-15T14:29:32.835Z,100866.16
2019-05-15T14:32:10.358Z,100871.69
2019-05-15T14:34:50.853Z,100875.77
2019-05-15T14:37:28.599Z,100880.61
2019-05-15T14:40:08.745Z,100882.54
2019-05-15T14:42:45.406Z,100878.41
2019-05-15T14:45:23.413Z,100888.59
2019-05-15T14:48:00.768Z,100893.96
2019-05-15T14:50:38.416Z,100897.02
2019-05-15T14:53:18.623Z,100901.64
2019-05-15T14:55:59.987Z,100910.43
2019-05-15T14:58:35.358Z,100918.40
2019-05-15T15:01:13.402Z,100924.05
2019-05-15T15:03:51.133Z,100918.02
2019-05-15T15:06:28.978Z,100921.95
2019-05-15T15:09:08.444Z,100925.28
2019-05-15T15:11:45.605Z,100933.65
2019-05-15T15:14:22.894Z,100926.06
2019-05-15T15:17:00.034Z,100919.53
2019-05-15T15:19:38.856Z,100903.48
2019-05-15T15:22:17.323Z,100893.92
2019-05-15T15:24:55.746Z,100897.26
2019-05-15T15:27:33.471Z,100884.74
2019-05-15T15:30:10.845Z,100883.17
2019-05-15T15:32:49.323Z,100874.88
2019-05-15T15:35:28.897Z,100880.22
2019-05-15T15:38:11.915Z,100879.17
2019-05-15T15:40:48.119Z,100877.73
2019-05-15T15:43:28.815Z,100883.10
2019-05-15T15:46:08.639Z,100878.02
2019-05-15T15:48:45.486Z,100872.95
2019-05-15T15:51:23.308Z,100866.39
2019-05-15T15:54:01.167Z,100867.98
2019-05-15T15:56:39.610Z,100853.03
2019-05-15T15:59:18.194Z,100856.21
2019-05-15T16:01:55.811Z,100855.28
2019-05-15T16:04:33.982Z,100856.03
2019-05-15T16:07:11.482Z,100858.45
2019-05-15T16:09:48.835Z,100859.86
2019-05-15T16:12:27.818Z,100860.56
2019-05-15T16:15:08.579Z,100862.47
2019-05-15T16:17:44.845Z,100861.02
2019-05-15T16:20:22.119Z,100863.97
2019-05-15T16:22:59.303Z,100864.83
2019-05-15T16:25:38.517Z,100867.83
2019-05-15T16:28:18.460Z,100872.27
2019-05-15T16:30:58.551Z,100873.34
2019-05-15T16:33:36.190Z,100874.41
2019-05-15T16:36:14.627Z,100875.14
2019-05-15T16:39:04.105Z,100874.86
2019-05-15T16:41:30.977Z,100873.95
2019-05-15T16:44:08.729Z,100880.09
2019-05-15T16:46:48.148Z,100873.68
2019-05-15T16:49:28.440Z,100874.28
2019-05-15T16:52:05.840Z,100867.14
2019-05-15T16:54:43.181Z,100866.16
2019-05-15T16:57:21.048Z,100869.84
2019-05-15T16:59:59.367Z,100871.19
2019-05-15T17:02:39.171Z,100871.23
2019-05-15T17:05:18.739Z,100867.31
2019-05-15T17:07:58.356Z,100857.27
2019-05-15T17:10:36.000Z,100849.70
2019-05-15T17:13:13.533Z,100847.77
2019-05-15T17:15:50.902Z,100838.89
2019-05-15T17:18:29.209Z,100835.47
2019-05-15T17:21:10.038Z,100822.31
2019-05-15T17:23:45.940Z,100819.66
2019-05-15T17:26:23.348Z,100811.78
2019-05-15T17:29:01.224Z,100806.69
2019-05-15T17:31:39.567Z,100806.31
2019-05-15T17:34:17.936Z,100797.98
2019-05-15T17:36:58.323Z,100800.16
2019-05-15T17:39:38.898Z,100789.87
2019-05-15T17:42:14.461Z,100773.63
2019-05-15T17:44:53.049Z,100767.91
2019-05-15T17:47:30.178Z,100761.27
2019-05-15T17:50:08.587Z,100761.66
2019-05-15T17:52:48.942Z,100752.06
2019-05-15T17:55:27.838Z,100742.63
2019-05-15T17:58:05.052Z,100737.49
2019-05-15T18:00:43.515Z,100737.38
2019-05-15T18:03:21.594Z,100729.76
2019-05-15T18:05:59.238Z,100723.86
2019-05-15T18:08:39.073Z,100711.75
2019-05-15T18:11:18.674Z,100711.65
2019-05-15T18:13:58.054Z,100708.88
2019-05-15T18:16:35.482Z,100701.52
2019-05-15T18:19:13.550Z,100708.69
2019-05-15T18:21:54.047Z,100706.42
2019-05-15T18:24:31.636Z,100697.61
2019-05-15T18:27:09.178Z,100694.65
2019-05-15T18:29:48.070Z,100686.80
2019-05-15T18:32:28.637Z,100694.27
2019-05-15T18:35:08.342Z,100685.55
2019-05-15T18:37:48.261Z,100683.73
2019-05-15T18:40:27.799Z,100680.58
2019-05-15T18:43:05.883Z,100683.08
2019-05-15T18:45:43.463Z,100689.20
2019-05-15T18:48:21.185Z,100684.59
2019-05-15T18:50:58.916Z,100682.02
2019-05-15T18:53:40.400Z,100672.54
2019-05-15T18:56:18.706Z,100671.31
2019-05-15T18:58:57.859Z,100672.59
2019-05-15T19:01:35.597Z,100678.53
2019-05-15T19:04:14.500Z,100672.39
2019-05-15T19:06:52.796Z,100675.64
2019-05-15T19:09:30.646Z,100675.48
2019-05-15T19:12:09.222Z,100666.81
2019-05-15T19:14:49.407Z,100669.25
2019-05-15T19:17:27.539Z,100658.55
2019-05-15T19:20:05.394Z,100654.20
2019-05-15T19:22:42.718Z,100661.63
2019-05-15T19:25:21.164Z,100649.03
2019-05-15T19:27:58.246Z,100643.96
2019-05-15T19:30:35.910Z,100640.63
2019-05-15T19:33:13.614Z,100643.75
2019-05-15T19:35:51.881Z,100641.28
2019-05-15T19:38:30.733Z,100645.37
2019-05-15T19:41:09.682Z,100631.32
2019-05-15T19:43:48.726Z,100636.69
2019-05-15T19:46:28.352Z,100627.53
2019-05-15T19:49:08.582Z,100618.47
2019-05-15T19:51:48.516Z,100624.05
2019-05-15T19:54:25.149Z,100623.72
2019-05-15T19:57:04.212Z,100625.59
2019-05-15T19:59:42.886Z,100614.53
2019-05-15T20:02:20.389Z,100624.31
2019-05-15T20:04:58.316Z,100627.31
2019-05-15T20:07:38.419Z,100622.97
2019-05-15T20:10:18.290Z,100623.36
2019-05-15T20:12:55.521Z,100628.08
2019-05-15T20:15:33.214Z,100621.55
2019-05-15T20:18:11.717Z,100631.86
2019-05-15T20:20:49.096Z,100642.17
2019-05-15T20:23:28.729Z,100647.22
2019-05-15T20:26:05.456Z,100653.28
2019-05-15T20:28:44.114Z,100649.51
2019-05-15T20:31:22.003Z,100647.80
2019-05-15T20:34:05.683Z,100643.78
2019-05-15T20:36:39.146Z,100640.05
2019-05-15T20:39:17.706Z,100641.94
2019-05-15T20:41:58.328Z,100641.76
2019-05-15T20:44:37.917Z,100651.39
2019-05-15T20:47:15.716Z,100650.34
2019-05-15T20:49:54.327Z,100653.05
2019-05-15T20:52:31.344Z,100654.43
2019-05-15T20:55:08.730Z,100648.84
2019-05-15T20:57:49.774Z,100650.09
2019-05-15T21:00:25.986Z,100648.02
2019-05-15T21:03:03.516Z,100641.92
2019-05-15T21:05:41.448Z,100641.63
2019-05-15T21:08:18.689Z,100640.35
2019-05-15T21:10:59.155Z,100638.39
2019-05-15T21:13:38.422Z,100647.27
2019-05-15T21:16:18.743Z,100651.71
2019-05-15T21:18:57.731Z,100658.62
2019-05-15T21:21:34.794Z,100664.41
2019-05-15T21:24:11.942Z,100669.08
2019-05-15T21:26:49.655Z,100666.59
2019-05-15T21:29:27.103Z,100660.14
2019-05-15T21:32:04.668Z,100666.63
2019-05-15T21:34:44.425Z,100671.56
2019-05-15T21:37:21.556Z,100667.45
2019-05-15T21:39:59.867Z,100673.21
2019-05-15T21:42:41.732Z,100664.05
2019-05-15T21:45:18.318Z,100669.30
2019-05-15T21:48:00.468Z,100666.44
2019-05-15T21:50:34.825Z,100671.30
2019-05-15T21:53:13.162Z,100664.16
2019-05-15T21:55:50.754Z,100672.42
2019-05-15T21:58:28.575Z,100673.59
2019-05-15T22:01:08.078Z,100677.52
2019-05-15T22:03:45.382Z,100676.91
2019-05-15T22:06:22.446Z,100678.53
2019-05-15T22:09:00.561Z,100675.00
2019-05-15T22:11:40.341Z,100676.73
2019-05-15T22:14:18.814Z,100685.53
2019-05-15T22:16:58.143Z,100702.14
2019-05-15T22:19:38.511Z,100717.34
2019-05-15T22:22:17.870Z,100746.52
2019-05-15T22:24:55.234Z,100759.34
2019-05-15T22:27:37.895Z,100754.53
2019-05-15T22:30:13.307Z,100762.70
2019-05-15T22:32:51.624Z,100758.66
2019-05-15T22:35:29.798Z,100755.27
2019-05-15T22:38:08.839Z,100746.89
2019-05-15T22:40:48.681Z,100747.30
2019-05-15T22:43:25.674Z,100725.23
2019-05-15T22:46:02.889Z,100729.88
2019-05-15T22:48:41.306Z,100739.10
2019-05-15T22:51:18.658Z,100752.61
2019-05-15T22:53:57.983Z,100757.23
2019-05-15T22:56:37.767Z,100763.01
2019-05-15T22:59:15.395Z,100759.39
2019-05-15T23:01:52.875Z,100764.60
2019-05-15T23:04:30.418Z,100767.86
2019-05-15T23:07:08.278Z,100752.11
2019-05-15T23:09:45.738Z,100772.02
2019-05-15T23:12:23.704Z,100767.60
2019-05-15T23:15:01.151Z,100772.22
2019-05-15T23:17:39.101Z,100778.41
2019-05-15T23:20:17.900Z,100773.20
2019-05-15T23:22:58.181Z,100782.13
2019-05-15T23:25:34.678Z,100781.19
2019-05-15T23:28:13.398Z,100774.80
2019-05-15T23:30:51.216Z,100770.93
2019-05-15T23:33:29.155Z,100771.82
2019-05-15T23:36:06.494Z,100780.09
2019-05-15T23:38:44.623Z,100784.16
2019-05-15T23:41:22.802Z,100794.59
2019-05-15T23:44:00.808Z,100797.55
2019-05-15T23:46:38.366Z,100810.80
2019-05-15T23:49:16.398Z,100814.56
2019-05-15T23:51:54.949Z,100818.43
2019-05-15T23:54:32.093Z,100823.36
2019-05-15T23:57:09.611Z,100827.90
2019-05-15T23:59:47.854Z,100836.84
